sensor_id;sensor_type;location;lat;lon;timestamp;pressure;altitude;pressure_sealevel;temperature;humidity
37202;BME280;37799;52.390;6.136;2022-07-29T00:02:01;101789.91;;;14.52;100.00
37202;BME280;37799;52.390;6.136;2022-07-29T00:04:26;101790.72;;;14.54;100.00
37202;BME280;37799;52.390;6.136;2022-07-29T00:06:51;101790.03;;;14.48;100.00
37202;BME280;37799;52.390;6.136;2022-07-29T00:09:17;101790.91;;;14.48;100.00
37202;BME280;37799;52.390;6.136;2022-07-29T00:11:42;101785.72;;;14.47;100.00
37202;BME280;37799;52.390;6.136;2022-07-29T00:14:08;101790.09;;;14.44;100.00
37202;BME280;37799;52.390;6.136;2022-07-29T00:16:33;101785.69;;;14.48;100.00
37202;BME280;37799;52.390;6.136;2022-07-29T00:18:58;101778.50;;;14.56;100.00
37202;BME280;37799;52.390;6.136;2022-07-29T00:21:24;101773.47;;;14.50;100.00
37202;BME280;37799;52.390;6.136;2022-07-29T00:23:49;101778.53;;;14.55;100.00
37202;BME280;37799;52.390;6.136;2022-07-29T00:26:14;101776.81;;;14.54;100.00
37202;BME280;37799;52.390;6.136;2022-07-29T00:28:40;101769.72;;;14.60;100.00
37202;BME280;37799;52.390;6.136;2022-07-29T00:31:05;101771.31;;;14.64;100.00
37202;BME280;37799;52.390;6.136;2022-07-29T00:33:30;101774.91;;;14.60;100.00
37202;BME280;37799;52.390;6.136;2022-07-29T00:35:55;101763.66;;;14.60;100.00
37202;BME280;37799;52.390;6.136;2022-07-29T00:38:21;101762.66;;;14.64;100.00
37202;BME280;37799;52.390;6.136;2022-07-29T00:40:47;101765.97;;;14.69;100.00
37202;BME280;37799;52.390;6.136;2022-07-29T00:43:14;101763.97;;;14.79;100.00
37202;BME280;37799;52.390;6.136;2022-07-29T00:45:42;101757.13;;;14.74;100.00
37202;BME280;37799;52.390;6.136;2022-07-29T00:48:08;101757.25;;;14.70;100.00
37202;BME280;37799;52.390;6.136;2022-07-29T00:50:34;101755.34;;;14.77;100.00
37202;BME280;37799;52.390;6.136;2022-07-29T00:53:01;101755.34;;;14.77;100.00
37202;BME280;37799;52.390;6.136;2022-07-29T00:55:27;101756.09;;;14.80;100.00
37202;BME280;37799;52.390;6.136;2022-07-29T00:57:54;101745.31;;;14.92;100.00
37202;BME280;37799;52.390;6.136;2022-07-29T01:00:23;101735.81;;;14.90;100.00
37202;BME280;37799;52.390;6.136;2022-07-29T01:02:50;101739.06;;;14.98;100.00
37202;BME280;37799;52.390;6.136;2022-07-29T01:05:18;101736.00;;;14.84;100.00
37202;BME280;37799;52.390;6.136;2022-07-29T01:07:44;101732.56;;;14.82;100.00
37202;BME280;37799;52.390;6.136;2022-07-29T01:10:12;101728.25;;;14.81;100.00
37202;BME280;37799;52.390;6.136;2022-07-29T01:12:39;101731.63;;;14.84;100.00
37202;BME280;37799;52.390;6.136;2022-07-29T01:15:06;101728.16;;;14.84;100.00
37202;BME280;37799;52.390;6.136;2022-07-29T01:28:53;101726.38;;;14.56;100.00
37202;BME280;37799;52.390;6.136;2022-07-29T01:32:01;101727.25;;;14.55;100.00
37202;BME280;37799;52.390;6.136;2022-07-29T01:34:22;101716.84;;;14.55;100.00
37202;BME280;37799;52.390;6.136;2022-07-29T01:36:54;101716.84;;;14.55;100.00
37202;BME280;37799;52.390;6.136;2022-07-29T01:39:30;101710.09;;;14.48;100.00
37202;BME280;37799;52.390;6.136;2022-07-29T01:42:08;101709.13;;;14.52;100.00
37202;BME280;37799;52.390;6.136;2022-07-29T01:44:39;101707.31;;;14.54;100.00
37202;BME280;37799;52.390;6.136;2022-07-29T01:47:12;101711.00;;;14.47;100.00
37202;BME280;37799;52.390;6.136;2022-07-29T01:49:45;101702.16;;;14.53;100.00
37202;BME280;37799;52.390;6.136;2022-07-29T01:52:16;101704.84;;;14.50;100.00
37202;BME280;37799;52.390;6.136;2022-07-29T01:54:49;101704.94;;;14.47;100.00
37202;BME280;37799;52.390;6.136;2022-07-29T01:57:18;101693.47;;;14.52;100.00
37202;BME280;37799;52.390;6.136;2022-07-29T01:59:46;101691.88;;;14.48;100.00
37202;BME280;37799;52.390;6.136;2022-07-29T02:02:13;101702.34;;;14.45;100.00
37202;BME280;37799;52.390;6.136;2022-07-29T02:04:40;101691.94;;;14.45;100.00
37202;BME280;37799;52.390;6.136;2022-07-29T02:07:10;101699.00;;;14.40;100.00
37202;BME280;37799;52.390;6.136;2022-07-29T02:09:39;101692.09;;;14.39;100.00
37202;BME280;37799;52.390;6.136;2022-07-29T02:12:07;101697.13;;;14.45;100.00
37202;BME280;37799;52.390;6.136;2022-07-29T02:14:40;101697.63;;;14.27;100.00
37202;BME280;37799;52.390;6.136;2022-07-29T02:17:07;101699.44;;;14.25;100.00
37202;BME280;37799;52.390;6.136;2022-07-29T02:19:33;101702.88;;;14.25;100.00
37202;BME280;37799;52.390;6.136;2022-07-29T02:22:00;101701.13;;;14.26;100.00
37202;BME280;37799;52.390;6.136;2022-07-29T02:24:28;101690.91;;;14.20;100.00
37202;BME280;37799;52.390;6.136;2022-07-29T02:26:57;101681.34;;;14.20;100.00
37202;BME280;37799;52.390;6.136;2022-07-29T02:29:26;101676.97;;;14.21;100.00
37202;BME280;37799;52.390;6.136;2022-07-29T02:31:52;101678.59;;;14.25;100.00
37202;BME280;37799;52.390;6.136;2022-07-29T02:34:19;101677.69;;;14.26;100.00
37202;BME280;37799;52.390;6.136;2022-07-29T02:36:46;101671.66;;;14.24;100.00
37202;BME280;37799;52.390;6.136;2022-07-29T02:39:13;101676.13;;;14.20;100.00
37202;BME280;37799;52.390;6.136;2022-07-29T02:41:45;101674.44;;;14.17;100.00
37202;BME280;37799;52.390;6.136;2022-07-29T02:44:17;101678.75;;;14.18;100.00
37202;BME280;37799;52.390;6.136;2022-07-29T02:47:39;101681.56;;;14.11;100.00
37202;BME280;37799;52.390;6.136;2022-07-29T02:52:41;101686.13;;;14.03;100.00
37202;BME280;37799;52.390;6.136;2022-07-29T02:55:30;101689.56;;;14.03;100.00
37202;BME280;37799;52.390;6.136;2022-07-29T02:58:21;101681.63;;;14.09;100.00
37202;BME280;37799;52.390;6.136;2022-07-29T03:00:49;101686.06;;;14.04;100.00
37202;BME280;37799;52.390;6.136;2022-07-29T03:03:17;101680.81;;;14.07;100.00
37202;BME280;37799;52.390;6.136;2022-07-29T03:05:43;101679.78;;;14.13;100.00
37202;BME280;37799;52.390;6.136;2022-07-29T03:08:11;101684.03;;;14.15;100.00
37202;BME280;37799;52.390;6.136;2022-07-29T03:10:39;101687.47;;;14.17;100.00
37202;BME280;37799;52.390;6.136;2022-07-29T03:13:07;101693.50;;;14.20;100.00
37202;BME280;37799;52.390;6.136;2022-07-29T03:15:34;101690.81;;;14.23;100.00
37202;BME280;37799;52.390;6.136;2022-07-29T03:18:01;101681.28;;;14.22;100.00
37202;BME280;37799;52.390;6.136;2022-07-29T03:20:27;101683.88;;;14.22;100.00
37202;BME280;37799;52.390;6.136;2022-07-29T03:22:52;101688.31;;;14.18;100.00
37202;BME280;37799;52.390;6.136;2022-07-29T03:25:19;101693.66;;;14.13;100.00
37202;BME280;37799;52.390;6.136;2022-07-29T03:27:45;101697.19;;;14.11;100.00
37202;BME280;37799;52.390;6.136;2022-07-29T03:30:12;101691.13;;;14.10;100.00
37202;BME280;37799;52.390;6.136;2022-07-29T03:32:39;101694.63;;;14.09;100.00
37202;BME280;37799;52.390;6.136;2022-07-29T03:35:05;101691.19;;;14.09;100.00
37202;BME280;37799;52.390;6.136;2022-07-29T03:37:31;101679.09;;;14.06;100.00
37202;BME280;37799;52.390;6.136;2022-07-29T03:39:58;101673.94;;;14.03;100.00
37202;BME280;37799;52.390;6.136;2022-07-29T03:42:28;101668.84;;;14.00;100.00
37202;BME280;37799;52.390;6.136;2022-07-29T03:44:55;101672.28;;;14.01;100.00
37202;BME280;37799;52.390;6.136;2022-07-29T03:47:25;101674.22;;;13.94;100.00
37202;BME280;37799;52.390;6.136;2022-07-29T03:49:58;101676.88;;;13.91;100.00
37202;BME280;37799;52.390;6.136;2022-07-29T03:52:24;101672.84;;;13.81;100.00
37202;BME280;37799;52.390;6.136;2022-07-29T03:54:50;101688.56;;;13.76;100.00
37202;BME280;37799;52.390;6.136;2022-07-29T03:57:15;101689.41;;;13.77;100.00
37202;BME280;37799;52.390;6.136;2022-07-29T03:59:41;101687.91;;;13.68;100.00
37202;BME280;37799;52.390;6.136;2022-07-29T04:02:09;101688.59;;;13.75;100.00
37202;BME280;37799;52.390;6.136;2022-07-29T04:04:34;101693.66;;;13.79;100.00
37202;BME280;37799;52.390;6.136;2022-07-29T04:07:00;101688.72;;;13.70;100.00
37202;BME280;37799;52.390;6.136;2022-07-29T04:09:25;101688.75;;;13.69;100.00
37202;BME280;37799;52.390;6.136;2022-07-29T04:11:51;101679.16;;;13.71;100.00
37202;BME280;37799;52.390;6.136;2022-07-29T04:14:16;101675.63;;;13.73;100.00
37202;BME280;37799;52.390;6.136;2022-07-29T04:16:42;101667.78;;;13.75;100.00
37202;BME280;37799;52.390;6.136;2022-07-29T04:19:07;101664.28;;;13.76;100.00
37202;BME280;37799;52.390;6.136;2022-07-29T04:21:39;101676.34;;;13.78;100.00
37202;BME280;37799;52.390;6.136;2022-07-29T04:24:05;101682.31;;;13.83;100.00
37202;BME280;37799;52.390;6.136;2022-07-29T04:26:30;101678.72;;;13.87;100.00
37202;BME280;37799;52.390;6.136;2022-07-29T04:28:56;101675.09;;;13.93;100.00
37202;BME280;37799;52.390;6.136;2022-07-29T04:31:21;101688.00;;;13.98;100.00
37202;BME280;37799;52.390;6.136;2022-07-29T04:33:46;101689.63;;;14.02;100.00
37202;BME280;37799;52.390;6.136;2022-07-29T04:36:12;101680.63;;;14.13;100.00
37202;BME280;37799;52.390;6.136;2022-07-29T04:38:38;101681.47;;;14.14;100.00
37202;BME280;37799;52.390;6.136;2022-07-29T04:41:03;101684.97;;;14.13;100.00
37202;BME280;37799;52.390;6.136;2022-07-29T04:43:29;101677.88;;;14.20;100.00
37202;BME280;37799;52.390;6.136;2022-07-29T04:45:54;101674.94;;;14.30;100.00
37202;BME280;37799;52.390;6.136;2022-07-29T04:48:19;101681.00;;;14.31;100.00
37202;BME280;37799;52.390;6.136;2022-07-29T04:50:45;101683.63;;;14.31;100.00
37202;BME280;37799;52.390;6.136;2022-07-29T04:53:10;101680.09;;;14.33;100.00
37202;BME280;37799;52.390;6.136;2022-07-29T04:55:36;101670.47;;;14.35;100.00
37202;BME280;37799;52.390;6.136;2022-07-29T04:58:01;101678.34;;;14.34;100.00
37202;BME280;37799;52.390;6.136;2022-07-29T05:00:27;101683.56;;;14.34;100.00
37202;BME280;37799;52.390;6.136;2022-07-29T05:02:52;101692.03;;;14.40;100.00
37202;BME280;37799;52.390;6.136;2022-07-29T05:05:18;101697.19;;;14.42;100.00
37202;BME280;37799;52.390;6.136;2022-07-29T05:07:43;101705.91;;;14.41;100.00
37202;BME280;37799;52.390;6.136;2022-07-29T05:10:08;101701.91;;;14.29;100.00
37202;BME280;37799;52.390;6.136;2022-07-29T05:12:34;101696.63;;;14.32;100.00
37202;BME280;37799;52.390;6.136;2022-07-29T05:14:59;101693.03;;;14.36;100.00
37202;BME280;37799;52.390;6.136;2022-07-29T05:17:24;101681.56;;;14.42;100.00
37202;BME280;37799;52.390;6.136;2022-07-29T05:19:50;101682.41;;;14.44;100.00
37202;BME280;37799;52.390;6.136;2022-07-29T05:22:17;101673.66;;;14.47;100.00
37202;BME280;37799;52.390;6.136;2022-07-29T05:24:43;101669.38;;;14.44;100.00
37202;BME280;37799;52.390;6.136;2022-07-29T05:27:08;101658.03;;;14.47;100.00
37202;BME280;37799;52.390;6.136;2022-07-29T05:29:34;101663.28;;;14.43;100.00
37202;BME280;37799;52.390;6.136;2022-07-29T05:31:59;101677.50;;;14.33;100.00
37202;BME280;37799;52.390;6.136;2022-07-29T05:34:25;101676.78;;;14.27;100.00
37202;BME280;37799;52.390;6.136;2022-07-29T05:36:50;101672.63;;;14.21;100.00
37202;BME280;37799;52.390;6.136;2022-07-29T05:39:15;101666.56;;;14.21;100.00
37202;BME280;37799;52.390;6.136;2022-07-29T05:41:41;101665.69;;;14.20;100.00
37202;BME280;37799;52.390;6.136;2022-07-29T05:44:06;101664.84;;;14.20;100.00
37202;BME280;37799;52.390;6.136;2022-07-29T05:46:31;101669.97;;;14.23;100.00
37202;BME280;37799;52.390;6.136;2022-07-29T05:48:57;101664.66;;;14.26;100.00
37202;BME280;37799;52.390;6.136;2022-07-29T05:51:22;101667.91;;;14.34;100.00
37202;BME280;37799;52.390;6.136;2022-07-29T05:53:47;101671.56;;;14.27;100.00
37202;BME280;37799;52.390;6.136;2022-07-29T05:56:13;101673.28;;;14.28;100.00
37202;BME280;37799;52.390;6.136;2022-07-29T05:58:38;101671.44;;;14.31;100.00
37202;BME280;37799;52.390;6.136;2022-07-29T06:01:03;101677.41;;;14.36;100.00
37202;BME280;37799;52.390;6.136;2022-07-29T06:03:28;101674.66;;;14.41;100.00
37202;BME280;37799;52.390;6.136;2022-07-29T06:05:54;101676.50;;;14.37;100.00
37202;BME280;37799;52.390;6.136;2022-07-29T06:08:19;101680.63;;;14.46;100.00
37202;BME280;37799;52.390;6.136;2022-07-29T06:10:45;101681.50;;;14.45;100.00
37202;BME280;37799;52.390;6.136;2022-07-29T06:13:10;101686.66;;;14.48;100.00
37202;BME280;37799;52.390;6.136;2022-07-29T06:15:37;101696.97;;;14.51;100.00
37202;BME280;37799;52.390;6.136;2022-07-29T06:18:02;101701.88;;;14.62;100.00
37202;BME280;37799;52.390;6.136;2022-07-29T06:20:29;101723.50;;;14.65;100.00
37202;BME280;37799;52.390;6.136;2022-07-29T06:22:55;101730.88;;;14.81;100.00
37202;BME280;37799;52.390;6.136;2022-07-29T06:25:20;101739.50;;;14.83;100.00
37202;BME280;37799;52.390;6.136;2022-07-29T06:27:46;101733.97;;;14.93;100.00
37202;BME280;37799;52.390;6.136;2022-07-29T06:30:12;101725.84;;;15.04;100.00
37202;BME280;37799;52.390;6.136;2022-07-29T06:32:37;101724.09;;;15.04;100.00
37202;BME280;37799;52.390;6.136;2022-07-29T06:35:02;101724.09;;;15.04;100.00
37202;BME280;37799;52.390;6.136;2022-07-29T06:37:28;101733.09;;;15.22;100.00
37202;BME280;37799;52.390;6.136;2022-07-29T06:39:53;101720.38;;;15.40;100.00
37202;BME280;37799;52.390;6.136;2022-07-29T06:42:43;101719.28;;;15.47;100.00
37202;BME280;37799;52.390;6.136;2022-07-29T06:45:09;101717.50;;;15.47;100.00
37202;BME280;37799;52.390;6.136;2022-07-29T06:47:35;101713.25;;;15.45;100.00
37202;BME280;37799;52.390;6.136;2022-07-29T06:50:00;101722.72;;;15.47;100.00
37202;BME280;37799;52.390;6.136;2022-07-29T06:52:25;101723.22;;;15.60;100.00
37202;BME280;37799;52.390;6.136;2022-07-29T06:54:51;101718.50;;;15.71;100.00
37202;BME280;37799;52.390;6.136;2022-07-29T06:57:16;101727.53;;;15.87;100.00
37202;BME280;37799;52.390;6.136;2022-07-29T06:59:41;101720.28;;;15.96;100.00
37202;BME280;37799;52.390;6.136;2022-07-29T07:02:06;101721.03;;;15.99;100.00
37202;BME280;37799;52.390;6.136;2022-07-29T07:04:32;101724.97;;;16.11;100.00
37202;BME280;37799;52.390;6.136;2022-07-29T07:06:58;101730.69;;;16.22;100.00
37202;BME280;37799;52.390;6.136;2022-07-29T07:09:24;101722.41;;;16.34;100.00
37202;BME280;37799;52.390;6.136;2022-07-29T07:11:50;101729.03;;;16.44;100.00
37202;BME280;37799;52.390;6.136;2022-07-29T07:14:15;101732.19;;;16.52;100.00
37202;BME280;37799;52.390;6.136;2022-07-29T07:16:40;101742.03;;;16.71;100.00
37202;BME280;37799;52.390;6.136;2022-07-29T07:19:06;101736.56;;;16.77;100.00
37202;BME280;37799;52.390;6.136;2022-07-29T07:21:32;101728.03;;;16.95;100.00
37202;BME280;37799;52.390;6.136;2022-07-29T07:23:58;101723.97;;;17.10;100.00
37202;BME280;37799;52.390;6.136;2022-07-29T07:26:24;101724.47;;;17.20;100.00
37202;BME280;37799;52.390;6.136;2022-07-29T07:28:50;101724.84;;;17.32;100.00
37202;BME280;37799;52.390;6.136;2022-07-29T07:31:15;101723.88;;;17.55;100.00
37202;BME280;37799;52.390;6.136;2022-07-29T07:33:40;101724.44;;;17.85;100.00
37202;BME280;37799;52.390;6.136;2022-07-29T07:36:06;101716.75;;;17.81;100.00
37202;BME280;37799;52.390;6.136;2022-07-29T07:38:31;101731.16;;;17.91;100.00
37202;BME280;37799;52.390;6.136;2022-07-29T07:40:56;101730.25;;;17.92;100.00
37202;BME280;37799;52.390;6.136;2022-07-29T07:43:21;101723.59;;;17.85;100.00
37202;BME280;37799;52.390;6.136;2022-07-29T07:45:47;101721.47;;;17.93;100.00
37202;BME280;37799;52.390;6.136;2022-07-29T07:48:13;101722.78;;;18.03;100.00
37202;BME280;37799;52.390;6.136;2022-07-29T07:50:38;101717.69;;;18.00;100.00
37202;BME280;37799;52.390;6.136;2022-07-29T07:53:03;101725.19;;;18.08;100.00
37202;BME280;37799;52.390;6.136;2022-07-29T07:55:29;101724.59;;;18.21;100.00
37202;BME280;37799;52.390;6.136;2022-07-29T07:57:54;101712.94;;;18.28;100.00
37202;BME280;37799;52.390;6.136;2022-07-29T08:00:20;101717.91;;;18.35;100.00
37202;BME280;37799;52.390;6.136;2022-07-29T08:02:45;101713.03;;;18.46;100.00
37202;BME280;37799;52.390;6.136;2022-07-29T08:05:11;101720.66;;;18.52;100.00
37202;BME280;37799;52.390;6.136;2022-07-29T08:07:40;101712.88;;;18.49;100.00
37202;BME280;37799;52.390;6.136;2022-07-29T08:10:06;101707.09;;;18.61;100.00
37202;BME280;37799;52.390;6.136;2022-07-29T08:12:31;101701.81;;;18.81;100.00
37202;BME280;37799;52.390;6.136;2022-07-29T08:14:57;101703.44;;;19.03;100.00
37202;BME280;37799;52.390;6.136;2022-07-29T08:17:22;101703.66;;;19.34;100.00
37202;BME280;37799;52.390;6.136;2022-07-29T08:19:47;101701.13;;;19.50;100.00
37202;BME280;37799;52.390;6.136;2022-07-29T08:22:13;101691.28;;;19.72;100.00
37202;BME280;37799;52.390;6.136;2022-07-29T08:24:39;101700.16;;;19.87;100.00
37202;BME280;37799;52.390;6.136;2022-07-29T08:27:20;101706.03;;;19.75;96.73
37202;BME280;37799;52.390;6.136;2022-07-29T08:29:46;101697.72;;;19.67;97.19
37202;BME280;37799;52.390;6.136;2022-07-29T08:32:11;101697.16;;;19.95;98.78
37202;BME280;37799;52.390;6.136;2022-07-29T08:34:36;101703.47;;;20.41;95.94
37202;BME280;37799;52.390;6.136;2022-07-29T08:37:02;101702.94;;;20.68;94.21
37202;BME280;37799;52.390;6.136;2022-07-29T08:39:27;101704.59;;;20.86;91.67
37202;BME280;37799;52.390;6.136;2022-07-29T08:41:53;101707.19;;;21.17;93.11
37202;BME280;37799;52.390;6.136;2022-07-29T08:44:20;101709.34;;;21.27;84.44
37202;BME280;37799;52.390;6.136;2022-07-29T08:46:47;101706.00;;;21.07;88.48
37202;BME280;37799;52.390;6.136;2022-07-29T08:49:12;101717.06;;;20.82;90.40
37202;BME280;37799;52.390;6.136;2022-07-29T08:51:39;101713.66;;;20.65;90.57
37202;BME280;37799;52.390;6.136;2022-07-29T08:54:05;101706.78;;;20.78;95.17
37202;BME280;37799;52.390;6.136;2022-07-29T08:56:30;101707.88;;;21.05;94.21
37202;BME280;37799;52.390;6.136;2022-07-29T08:58:58;101707.72;;;21.24;91.55
37202;BME280;37799;52.390;6.136;2022-07-29T09:01:27;101718.94;;;21.28;89.12
37202;BME280;37799;52.390;6.136;2022-07-29T09:03:55;101714.91;;;21.52;91.05
37202;BME280;37799;52.390;6.136;2022-07-29T09:06:22;101723.63;;;21.68;88.75
37202;BME280;37799;52.390;6.136;2022-07-29T09:08:49;101721.28;;;22.08;87.24
37202;BME280;37799;52.390;6.136;2022-07-29T09:11:14;101725.56;;;22.67;84.77
37202;BME280;37799;52.390;6.136;2022-07-29T09:13:40;101724.78;;;22.94;79.95
37202;BME280;37799;52.390;6.136;2022-07-29T09:16:06;101732.31;;;23.27;77.69
37202;BME280;37799;52.390;6.136;2022-07-29T09:18:42;101727.50;;;23.61;75.79
37202;BME280;37799;52.390;6.136;2022-07-29T09:21:14;101727.28;;;23.64;75.96
37202;BME280;37799;52.390;6.136;2022-07-29T09:24:07;101722.63;;;23.40;74.42
37202;BME280;37799;52.390;6.136;2022-07-29T09:26:34;101733.53;;;23.36;76.40
37202;BME280;37799;52.390;6.136;2022-07-29T09:29:00;101733.25;;;23.26;77.35
37202;BME280;37799;52.390;6.136;2022-07-29T09:31:36;101749.78;;;22.88;75.10
37202;BME280;37799;52.390;6.136;2022-07-29T09:34:02;101743.56;;;22.47;81.11
37202;BME280;37799;52.390;6.136;2022-07-29T09:36:27;101741.38;;;22.39;81.73
37202;BME280;37799;52.390;6.136;2022-07-29T09:38:58;101737.34;;;22.33;82.08
37202;BME280;37799;52.390;6.136;2022-07-29T09:41:25;101749.22;;;22.41;84.61
37202;BME280;37799;52.390;6.136;2022-07-29T09:43:57;101750.06;;;22.27;81.65
37202;BME280;37799;52.390;6.136;2022-07-29T09:46:24;101751.41;;;22.04;81.67
37202;BME280;37799;52.390;6.136;2022-07-29T09:49:06;101750.91;;;21.97;82.20
37202;BME280;37799;52.390;6.136;2022-07-29T09:51:31;101743.19;;;21.94;85.52
37202;BME280;37799;52.390;6.136;2022-07-29T09:53:57;101742.25;;;21.95;86.49
37202;BME280;37799;52.390;6.136;2022-07-29T09:56:42;101742.56;;;22.05;85.31
37202;BME280;37799;52.390;6.136;2022-07-29T09:59:08;101745.03;;;22.08;82.74
37202;BME280;37799;52.390;6.136;2022-07-29T10:01:34;101745.50;;;21.85;86.91
37202;BME280;37799;52.390;6.136;2022-07-29T10:04:01;101739.97;;;21.89;87.13
37202;BME280;37799;52.390;6.136;2022-07-29T10:06:26;101748.16;;;22.15;89.43
37202;BME280;37799;52.390;6.136;2022-07-29T10:08:51;101751.25;;;22.07;84.67
37202;BME280;37799;52.390;6.136;2022-07-29T10:11:18;101752.00;;;22.09;86.21
37202;BME280;37799;52.390;6.136;2022-07-29T10:13:45;101755.97;;;22.16;83.87
37202;BME280;37799;52.390;6.136;2022-07-29T10:16:12;101754.56;;;21.95;85.15
37202;BME280;37799;52.390;6.136;2022-07-29T10:18:39;101750.31;;;21.78;85.80
37202;BME280;37799;52.390;6.136;2022-07-29T10:21:04;101752.06;;;21.47;85.82
37202;BME280;37799;52.390;6.136;2022-07-29T10:23:30;101747.47;;;21.51;87.74
37202;BME280;37799;52.390;6.136;2022-07-29T10:25:58;101747.78;;;21.61;88.74
37202;BME280;37799;52.390;6.136;2022-07-29T10:28:24;101747.78;;;21.61;87.64
37202;BME280;37799;52.390;6.136;2022-07-29T10:30:50;101754.72;;;21.77;87.29
37202;BME280;37799;52.390;6.136;2022-07-29T10:36:35;101752.22;;;22.20;84.59
37202;BME280;37799;52.390;6.136;2022-07-29T10:44:27;101752.03;;;22.80;78.13
37202;BME280;37799;52.390;6.136;2022-07-29T10:46:52;101742.56;;;23.19;79.32
37202;BME280;37799;52.390;6.136;2022-07-29T10:49:19;101743.56;;;23.43;78.33
37202;BME280;37799;52.390;6.136;2022-07-29T10:52:00;101743.72;;;23.54;74.57
37202;BME280;37799;52.390;6.136;2022-07-29T10:57:27;101738.59;;;24.31;76.81
37202;BME280;37799;52.390;6.136;2022-07-29T11:05:04;101736.13;;;24.15;70.82
37202;BME280;37799;52.390;6.136;2022-07-29T11:07:32;101734.31;;;24.03;71.75
37202;BME280;37799;52.390;6.136;2022-07-29T11:15:03;101742.91;;;24.06;73.82
37202;BME280;37799;52.390;6.136;2022-07-29T11:20:45;101746.50;;;24.05;72.10
37202;BME280;37799;52.390;6.136;2022-07-29T11:29:02;101752.22;;;23.99;69.72
37202;BME280;37799;52.390;6.136;2022-07-29T11:31:42;101755.50;;;24.03;72.96
37202;BME280;37799;52.390;6.136;2022-07-29T11:39:35;101752.66;;;25.19;66.49
37202;BME280;37799;52.390;6.136;2022-07-29T11:47:27;101744.41;;;24.98;68.61
37202;BME280;37799;52.390;6.136;2022-07-29T11:49:57;101741.03;;;25.09;66.78
37202;BME280;37799;52.390;6.136;2022-07-29T11:52:23;101738.25;;;25.10;63.82
37202;BME280;37799;52.390;6.136;2022-07-29T11:54:57;101733.38;;;25.17;64.33
37202;BME280;37799;52.390;6.136;2022-07-29T11:57:22;101733.47;;;25.15;62.27
37202;BME280;37799;52.390;6.136;2022-07-29T11:59:48;101730.91;;;25.26;64.07
37202;BME280;37799;52.390;6.136;2022-07-29T12:02:14;101730.66;;;25.06;64.65
37202;BME280;37799;52.390;6.136;2022-07-29T12:04:55;101728.13;;;25.04;65.31
37202;BME280;37799;52.390;6.136;2022-07-29T12:07:31;101727.38;;;24.89;63.97
37202;BME280;37799;52.390;6.136;2022-07-29T12:09:59;101718.84;;;24.60;65.20
37202;BME280;37799;52.390;6.136;2022-07-29T12:12:25;101737.63;;;24.57;65.84
37202;BME280;37799;52.390;6.136;2022-07-29T12:14:51;101733.06;;;24.96;61.42
37202;BME280;37799;52.390;6.136;2022-07-29T12:17:33;101728.13;;;25.04;63.46
37202;BME280;37799;52.390;6.136;2022-07-29T12:20:02;101725.47;;;25.63;62.82
37202;BME280;37799;52.390;6.136;2022-07-29T12:22:33;101732.13;;;25.93;58.14
37202;BME280;37799;52.390;6.136;2022-07-29T12:25:10;101734.19;;;26.11;56.99
37202;BME280;37799;52.390;6.136;2022-07-29T12:27:37;101735.31;;;26.31;55.05
37202;BME280;37799;52.390;6.136;2022-07-29T12:30:08;101740.16;;;26.60;55.54
37202;BME280;37799;52.390;6.136;2022-07-29T12:32:35;101740.72;;;26.30;54.42
37202;BME280;37799;52.390;6.136;2022-07-29T12:35:06;101734.97;;;26.58;59.34
37202;BME280;37799;52.390;6.136;2022-07-29T12:37:33;101727.34;;;26.54;53.35
37202;BME280;37799;52.390;6.136;2022-07-29T12:39:59;101726.94;;;27.14;52.56
37202;BME280;37799;52.390;6.136;2022-07-29T12:42:25;101725.53;;;26.88;50.40
37202;BME280;37799;52.390;6.136;2022-07-29T12:44:51;101731.22;;;26.72;51.67
37202;BME280;37799;52.390;6.136;2022-07-29T12:47:17;101726.84;;;26.82;55.59
37202;BME280;37799;52.390;6.136;2022-07-29T12:49:44;101727.34;;;26.87;49.58
37202;BME280;37799;52.390;6.136;2022-07-29T12:52:30;101721.78;;;26.68;50.45
37202;BME280;37799;52.390;6.136;2022-07-29T12:54:56;101714.53;;;26.81;50.13
37202;BME280;37799;52.390;6.136;2022-07-29T12:57:22;101712.00;;;26.80;49.73
37202;BME280;37799;52.390;6.136;2022-07-29T12:59:59;101705.31;;;27.08;51.33
37202;BME280;37799;52.390;6.136;2022-07-29T13:02:24;101702.34;;;27.54;52.01
37202;BME280;37799;52.390;6.136;2022-07-29T13:04:57;101708.16;;;27.80;48.16
37202;BME280;37799;52.390;6.136;2022-07-29T13:07:27;101701.63;;;28.14;49.76
37202;BME280;37799;52.390;6.136;2022-07-29T13:09:54;101690.72;;;28.17;46.58
37202;BME280;37799;52.390;6.136;2022-07-29T13:12:20;101701.69;;;28.64;48.06
37202;BME280;37799;52.390;6.136;2022-07-29T13:14:49;101708.41;;;28.99;47.82
37202;BME280;37799;52.390;6.136;2022-07-29T13:17:21;101697.47;;;29.12;44.86
37202;BME280;37799;52.390;6.136;2022-07-29T13:20:04;101705.31;;;29.13;45.92
37202;BME280;37799;52.390;6.136;2022-07-29T13:22:30;101700.28;;;29.10;44.24
37202;BME280;37799;52.390;6.136;2022-07-29T13:24:58;101707.44;;;29.10;44.45
37202;BME280;37799;52.390;6.136;2022-07-29T13:27:25;101706.31;;;28.93;45.68
37202;BME280;37799;52.390;6.136;2022-07-29T13:29:51;101697.19;;;28.95;46.73
37202;BME280;37799;52.390;6.136;2022-07-29T13:32:17;101697.19;;;29.34;47.39
37202;BME280;37799;52.390;6.136;2022-07-29T13:34:43;101708.16;;;29.60;44.99
37202;BME280;37799;52.390;6.136;2022-07-29T13:37:08;101706.72;;;29.85;44.71
37202;BME280;37799;52.390;6.136;2022-07-29T13:39:33;101703.22;;;29.26;46.41
37202;BME280;37799;52.390;6.136;2022-07-29T13:41:59;101707.88;;;29.44;44.95